Time;durP1;ratioP1;P1;durP2;ratioP2;P2;SDS_P1;SDS_P2;PMS_P1;PMS_P2;Temp;Humidity;BMP_temperature;BMP_pressure;BME280_temperature;BME280_humidity;BME280_pressure;Samples;Min_cycle;Max_cycle;Signal;HPM_P1;HPM_P2
2023/03/02 00:01:46;;;;;;;4.07;3.30;;;;;;;;;;5012165;28;20054;-32
2023/03/02 00:04:15;;;;;;;4.00;3.40;;;18.90;45.60;;;;;;5011866;28;20081;-33
2023/03/02 00:06:42;;;;;;;3.42;3.10;;;;;;;;;;5011972;28;20056;-34
2023/03/02 00:09:10;;;;;;;3.65;3.25;;;;;;;;;;5012196;28;20064;-34
2023/03/02 00:11:37;;;;;;;4.43;3.38;;;;;;;;;;5012207;28;20050;-33
2023/03/02 00:14:04;;;;;;;3.60;3.03;;;;;;;;;;5011256;28;20057;-33
2023/03/02 00:16:32;;;;;;;3.88;3.40;;;;;;;;;;4992355;28;20068;-34
2023/03/02 00:18:59;;;;;;;3.78;3.35;;;18.70;54.40;;;;;;4992345;28;20130;-36
2023/03/02 00:21:26;;;;;;;3.75;3.22;;;;;;;;;;4997985;28;20050;-35
2023/03/02 00:23:53;;;;;;;3.72;3.33;;;;;;;;;;5011744;28;20069;-33
2023/03/02 00:26:20;;;;;;;3.60;3.30;;;;;;;;;;5011832;28;20125;-34
2023/03/02 00:28:47;;;;;;;3.88;3.22;;;;;;;;;;5011890;28;20053;-34
2023/03/02 00:31:14;;;;;;;3.42;3.10;;;18.60;74.80;;;;;;5011622;28;20049;-34
2023/03/02 00:33:42;;;;;;;4.20;3.38;;;;;;;;;;5011513;28;20046;-32
2023/03/02 00:36:15;;;;;;;3.97;3.20;;;;;;;;;;5011031;28;20071;-34
2023/03/02 00:38:42;;;;;;;3.65;3.00;;;;;;;;;;5011603;28;20046;-33
2023/03/02 00:41:09;;;;;;;3.72;3.28;;;;;;;;;;5013990;28;20049;-34
2023/03/02 00:43:35;;;;;;;3.63;3.13;;;18.70;75.70;;;;;;5015190;28;20056;-33
2023/03/02 00:46:08;;;;;;;3.85;3.15;;;;;;;;;;5015191;28;20509;-32
2023/03/02 00:48:35;;;;;;;3.83;2.90;;;;;;;;;;5014940;28;20049;-34
2023/03/02 00:51:04;;;;;;;3.35;3.00;;;18.30;46.70;;;;;;5015406;28;20052;-34
2023/03/02 00:53:31;;;;;;;3.28;2.88;;;;;;;;;;5015035;28;20052;-32
2023/03/02 00:55:58;;;;;;;3.75;2.90;;;;;;;;;;5015261;28;20058;-34
2023/03/02 00:58:26;;;;;;;3.60;3.15;;;;;;;;;;5014906;28;20050;-33
2023/03/02 01:00:52;;;;;;;3.83;3.13;;;18.20;63.70;;;;;;5015017;28;20049;-34
2023/03/02 01:03:19;;;;;;;3.72;3.17;;;;;;;;;;5014387;28;20060;-34
2023/03/02 01:05:46;;;;;;;3.78;2.97;;;17.60;75.30;;;;;;5015034;28;20046;-32
2023/03/02 01:08:14;;;;;;;3.67;3.10;;;;;;;;;;5014884;28;20488;-32
2023/03/02 01:10:42;;;;;;;3.90;3.35;;;;;;;;;;5014564;28;20507;-32
2023/03/02 01:13:08;;;;;;;3.83;2.95;;;17.70;75.00;;;;;;5014351;28;20054;-34
2023/03/02 01:15:36;;;;;;;3.83;3.00;;;18.00;46.70;;;;;;5014561;28;20046;-33
2023/03/02 01:18:03;;;;;;;3.75;3.10;;;;;;;;;;5014919;28;20050;-33
2023/03/02 01:20:30;;;;;;;3.28;2.97;;;;;;;;;;5014558;28;20412;-34
2023/03/02 01:22:57;;;;;;;3.20;2.55;;;;;;;;;;5014269;28;20513;-32
2023/03/02 01:25:26;;;;;;;3.80;3.15;;;;;;;;;;5014507;28;20052;-35
2023/03/02 01:27:53;;;;;;;3.72;3.20;;;;;;;;;;5014258;28;20052;-32
2023/03/02 01:30:20;;;;;;;3.40;2.92;;;;;;;;;;5014409;28;20052;-32
2023/03/02 01:32:47;;;;;;;3.55;3.03;;;;;;;;;;5014081;28;20060;-35
2023/03/02 01:35:14;;;;;;;5.32;3.40;;;;;;;;;;5014496;28;20060;-33
2023/03/02 01:37:41;;;;;;;3.45;3.03;;;17.50;65.50;;;;;;5013844;28;20046;-34
2023/03/02 01:40:08;;;;;;;3.40;3.10;;;;;;;;;;5014541;28;20056;-34
2023/03/02 01:42:39;;;;;;;3.38;2.85;;;;;;;;;;5013410;28;20042;-33
2023/03/02 01:45:06;;;;;;;4.15;3.30;;;;;;;;;;5012963;28;20062;-33
2023/03/02 01:47:35;;;;;;;3.83;3.15;;;17.60;75.30;;;;;;5014336;28;20046;-32
2023/03/02 01:50:04;;;;;;;4.07;3.22;;;17.80;47.20;;;;;;5014022;28;20511;-32
2023/03/02 01:52:32;;;;;;;4.10;3.35;;;17.60;47.10;;;;;;5013315;28;20457;-32
2023/03/02 01:54:59;;;;;;;4.10;3.38;;;;;;;;;;5013754;28;20433;-33
2023/03/02 01:57:27;;;;;;;3.40;3.10;;;18.10;76.00;;;;;;5013722;28;20499;-32
2023/03/02 01:59:56;;;;;;;4.75;3.78;;;17.70;47.30;;;;;;5013799;28;20090;-33
2023/03/02 02:02:23;;;;;;;4.32;3.55;;;;;;;;;;5013677;28;20084;-34
2023/03/02 02:04:50;;;;;;;4.35;3.63;;;17.60;74.50;;;;;;5013809;28;20418;-35
2023/03/02 02:07:17;;;;;;;5.18;3.97;;;;;;;;;;5013857;28;20098;-32
2023/03/02 02:09:45;;;;;;;4.97;3.78;;;;;;;;;;5013790;28;20060;-33
2023/03/02 02:12:13;;;;;;;4.32;3.40;;;17.60;47.50;;;;;;5013623;28;20087;-33
2023/03/02 02:14:40;;;;;;;5.45;4.30;;;;;;;;;;5013550;28;20046;-34
2023/03/02 02:17:08;;;;;;;5.68;4.40;;;17.60;48.00;;;;;;5013344;28;20133;-33
2023/03/02 02:19:42;;;;;;;5.00;4.00;;;17.50;47.80;;;;;;5013559;28;20414;-33
2023/03/02 02:22:10;;;;;;;5.53;4.32;;;;;;;;;;5013448;28;20056;-32
2023/03/02 02:24:38;;;;;;;6.20;4.38;;;;;;;;;;5013403;28;20049;-35
2023/03/02 02:27:06;;;;;;;6.38;5.15;;;17.50;46.50;;;;;;5013416;28;20448;-33
2023/03/02 02:29:34;;;;;;;5.57;4.78;;;;;;;;;;5013613;28;20053;-32
2023/03/02 02:32:01;;;;;;;5.90;4.70;;;;;;;;;;5013257;28;20053;-32
2023/03/02 02:34:30;;;;;;;7.15;5.28;;;17.40;48.00;;;;;;5012833;28;20064;-34
2023/03/02 02:36:58;;;;;;;6.38;4.93;;;;;;;;;;5012743;28;20410;-33
2023/03/02 02:39:28;;;;;;;6.93;5.68;;;17.40;48.10;;;;;;5013198;28;20054;-34
2023/03/02 02:41:56;;;;;;;6.45;5.20;;;;;;;;;;5013338;28;20046;-35
2023/03/02 02:44:24;;;;;;;6.65;5.65;;;;;;;;;;5012636;28;20384;-34
2023/03/02 02:46:51;;;;;;;7.55;6.45;;;;;;;;;;5013058;28;20506;-33
2023/03/02 02:49:26;;;;;;;8.30;5.72;;;17.50;47.10;;;;;;5012887;28;20049;-32
2023/03/02 02:51:53;;;;;;;7.18;5.63;;;;;;;;;;5013314;28;20411;-32
2023/03/02 02:54:19;;;;;;;7.60;5.78;;;17.70;75.50;;;;;;5012326;28;20519;-35
2023/03/02 02:56:47;;;;;;;8.48;6.57;;;;;;;;;;5013085;28;20050;-33
2023/03/02 02:59:15;;;;;;;7.65;6.25;;;18.40;76.00;;;;;;5012921;28;20050;-32
2023/03/02 03:01:43;;;;;;;7.70;6.05;;;17.30;45.70;;;;;;5012824;28;20049;-34
2023/03/02 03:04:11;;;;;;;9.40;7.10;;;;;;;;;;5010803;28;20059;-33
2023/03/02 03:06:40;;;;;;;8.32;6.95;;;;;;;;;;5012842;28;20050;-33
2023/03/02 03:09:08;;;;;;;9.15;6.65;;;;;;;;;;5013209;28;20049;-34
2023/03/02 03:11:35;;;;;;;9.30;7.25;;;;;;;;;;5012730;28;20418;-34
2023/03/02 03:14:03;;;;;;;10.13;7.28;;;;;;;;;;5012051;28;20530;-35
2023/03/02 03:16:31;;;;;;;11.23;7.90;;;;;;;;;;5012225;28;20080;-32
2023/03/02 03:18:59;;;;;;;10.43;8.27;;;;;;;;;;5012716;28;20046;-32
2023/03/02 03:21:26;;;;;;;10.55;8.07;;;;;;;;;;5012757;28;20049;-35
2023/03/02 03:23:53;;;;;;;10.07;7.30;;;;;;;;;;5012090;28;20050;-32
2023/03/02 03:26:20;;;;;;;9.55;7.30;;;;;;;;;;5012455;28;20137;-32
2023/03/02 03:28:47;;;;;;;10.55;8.13;;;;;;;;;;5012142;28;20049;-34
2023/03/02 03:31:15;;;;;;;11.85;8.57;;;17.10;77.00;;;;;;5012084;28;20054;-33
2023/03/02 03:33:42;;;;;;;12.02;8.45;;;;;;;;;;5011913;28;20073;-32
2023/03/02 03:36:10;;;;;;;11.50;8.75;;;;;;;;;;5011759;28;20042;-36
2023/03/02 03:38:37;;;;;;;11.60;8.40;;;;;;;;;;5012374;28;20054;-32
2023/03/02 03:41:04;;;;;;;11.73;8.25;;;;;;;;;;5012487;28;20120;-33
2023/03/02 03:43:31;;;;;;;11.90;8.35;;;;;;;;;;5011872;28;20056;-33
2023/03/02 03:45:58;;;;;;;13.70;9.38;;;;;;;;;;5011988;28;20049;-33
2023/03/02 03:48:25;;;;;;;11.68;8.95;;;;;;;;;;5012354;28;20388;-33
2023/03/02 03:50:52;;;;;;;13.90;10.10;;;;;;;;;;5012257;28;20072;-33
2023/03/02 03:53:20;;;;;;;13.32;9.40;;;17.50;47.90;;;;;;5011860;28;20529;-32
2023/03/02 03:55:49;;;;;;;13.23;9.68;;;;;;;;;;5011999;28;20081;-32
2023/03/02 03:58:16;;;;;;;12.95;9.52;;;;;;;;;;5012034;28;20092;-33
2023/03/02 04:00:46;;;;;;;12.95;9.63;;;;;;;;;;5011690;28;20505;-32
2023/03/02 04:03:13;;;;;;;14.15;9.95;;;18.00;51.00;;;;;;5011592;28;20104;-35
2023/03/02 04:05:40;;;;;;;14.07;10.20;;;;;;;;;;5012078;28;20060;-34
2023/03/02 04:08:07;;;;;;;14.60;10.10;;;;;;;;;;5011987;28;20056;-35
2023/03/02 04:10:35;;;;;;;13.75;10.13;;;17.80;48.50;;;;;;5012013;28;20061;-33
2023/03/02 04:13:03;;;;;;;13.80;10.20;;;;;;;;;;5011817;28;20053;-34
2023/03/02 04:15:30;;;;;;;14.23;9.90;;;;;;;;;;5012877;28;20122;-36
2023/03/02 04:17:57;;;;;;;14.48;10.00;;;;;;;;;;5015721;28;20602;-35
2023/03/02 04:20:24;;;;;;;14.18;10.20;;;;;;;;;;5015858;28;20053;-33
2023/03/02 04:22:52;;;;;;;13.27;9.68;;;17.90;48.10;;;;;;5015427;28;20087;-32
2023/03/02 04:25:20;;;;;;;13.10;9.52;;;;;;;;;;5015522;28;20042;-33
2023/03/02 04:27:48;;;;;;;12.68;9.45;;;;;;;;;;5015969;28;20384;-33
2023/03/02 04:30:15;;;;;;;13.73;9.80;;;;;;;;;;5015273;28;20060;-33
2023/03/02 04:32:43;;;;;;;12.52;9.48;;;;;;;;;;5015378;28;20046;-35
2023/03/02 04:35:10;;;;;;;12.05;8.88;;;;;;;;;;5015612;28;20054;-32
2023/03/02 04:37:37;;;;;;;12.63;9.20;;;;;;;;;;5014938;28;20046;-33
2023/03/02 04:40:05;;;;;;;12.05;9.00;;;;;;;;;;5015601;28;20050;-33
2023/03/02 04:42:32;;;;;;;13.23;9.38;;;;;;;;;;5014814;28;20495;-34
2023/03/02 04:45:00;;;;;;;11.93;9.02;;;18.00;46.00;;;;;;5015168;28;20057;-32
2023/03/02 04:47:27;;;;;;;12.18;9.30;;;;;;;;;;5015389;28;20082;-33
2023/03/02 04:49:55;;;;;;;12.35;8.77;;;18.30;56.00;;;;;;5015302;28;20056;-33
2023/03/02 04:52:23;;;;;;;10.32;8.02;;;;;;;;;;5014998;28;20108;-33
2023/03/02 04:54:50;;;;;;;11.63;8.88;;;;;;;;;;5015470;28;20411;-33
2023/03/02 04:57:17;;;;;;;10.73;8.45;;;;;;;;;;5014822;28;20487;-33
2023/03/02 04:59:44;;;;;;;10.60;8.18;;;;;;;;;;5014798;28;20048;-32
2023/03/02 05:02:13;;;;;;;11.70;8.48;;;;;;;;;;5014615;28;20041;-36
2023/03/02 05:04:41;;;;;;;10.68;8.48;;;;;;;;;;5014851;28;20058;-33
2023/03/02 05:07:08;;;;;;;11.35;8.55;;;;;;;;;;5014890;28;20050;-33
2023/03/02 05:09:35;;;;;;;10.27;7.80;;;;;;;;;;5015085;28;20049;-32
2023/03/02 05:12:02;;;;;;;9.70;7.32;;;;;;;;;;5014966;28;20058;-34
2023/03/02 05:14:29;;;;;;;9.27;7.10;;;;;;;;;;5014252;28;20387;-35
2023/03/02 05:16:56;;;;;;;9.15;7.38;;;;;;;;;;5014757;28;20487;-34
2023/03/02 05:19:24;;;;;;;8.50;6.85;;;;;;;;;;5014255;28;20064;-33
2023/03/02 05:21:51;;;;;;;8.68;6.90;;;;;;;;;;5014934;28;20050;-33
2023/03/02 05:24:19;;;;;;;9.10;7.03;;;;;;;;;;5014319;28;20146;-32
2023/03/02 05:26:46;;;;;;;9.55;7.28;;;;;;;;;;5013853;28;20056;-32
2023/03/02 05:29:13;;;;;;;8.60;6.60;;;;;;;;;;5014265;28;20046;-32
2023/03/02 05:31:41;;;;;;;8.85;6.78;;;18.30;47.90;;;;;;5014362;28;20141;-33
2023/03/02 05:34:09;;;;;;;8.25;6.88;;;18.30;47.90;;;;;;5014128;28;20056;-32
2023/03/02 05:36:38;;;;;;;9.05;7.10;;;18.20;46.10;;;;;;5014084;28;20121;-36
2023/03/02 05:39:05;;;;;;;7.95;6.60;;;;;;;;;;5014483;28;20061;-32
2023/03/02 05:41:32;;;;;;;7.50;5.93;;;;;;;;;;5014341;28;20046;-33
2023/03/02 05:43:59;;;;;;;8.40;6.40;;;;;;;;;;5013510;28;20056;-33
2023/03/02 05:46:26;;;;;;;8.45;6.45;;;;;;;;;;5013564;28;20050;-33
2023/03/02 05:48:53;;;;;;;8.68;6.63;;;;;;;;;;5014409;28;20054;-32
2023/03/02 05:51:20;;;;;;;8.27;6.50;;;;;;;;;;5014242;28;20049;-33
2023/03/02 05:53:48;;;;;;;9.27;6.50;;;18.30;48.10;;;;;;5013909;28;20050;-34
2023/03/02 05:56:16;;;;;;;7.72;6.13;;;;;;;;;;5014187;28;20056;-33
2023/03/02 05:58:43;;;;;;;6.90;5.68;;;;;;;;;;5013752;28;20054;-33
2023/03/02 06:01:10;;;;;;;7.65;6.35;;;;;;;;;;5013362;28;20161;-32
2023/03/02 06:03:37;;;;;;;7.25;5.93;;;;;;;;;;5013507;28;20551;-35
2023/03/02 06:06:04;;;;;;;7.38;6.00;;;;;;;;;;5013981;28;20060;-33
2023/03/02 06:08:32;;;;;;;7.03;5.70;;;;;;;;;;5013634;28;20422;-33
2023/03/02 06:11:00;;;;;;;7.25;5.95;;;;;;;;;;5013595;28;20045;-33
2023/03/02 06:13:27;;;;;;;7.25;5.63;;;;;;;;;;5013258;28;20392;-35
2023/03/02 06:15:54;;;;;;;7.30;5.55;;;;;;;;;;5013099;28;20052;-33
2023/03/02 06:18:21;;;;;;;8.32;5.60;;;;;;;;;;5013515;28;20072;-34
2023/03/02 06:20:49;;;;;;;7.05;5.82;;;18.20;47.80;;;;;;5013660;28;20049;-34
2023/03/02 06:23:16;;;;;;;7.22;6.03;;;;;;;;;;5013359;28;20046;-32
2023/03/02 06:25:47;;;;;;;7.00;5.82;;;;;;;;;;5013205;28;20514;-33
2023/03/02 06:28:15;;;;;;;7.40;6.00;;;18.30;48.10;;;;;;5013415;28;20414;-33
2023/03/02 06:30:42;;;;;;;6.65;5.28;;;18.20;77.60;;;;;;5012827;28;20410;-34
2023/03/02 06:33:09;;;;;;;6.55;5.28;;;;;;;;;;5013107;28;20518;-33
2023/03/02 06:35:36;;;;;;;6.05;5.13;;;;;;;;;;5013180;28;20050;-36
2023/03/02 06:38:03;;;;;;;6.35;5.60;;;;;;;;;;5012744;28;20054;-32
2023/03/02 06:40:31;;;;;;;6.45;5.40;;;;;;;;;;5013156;28;20054;-34
2023/03/02 06:42:59;;;;;;;6.28;5.47;;;;;;;;;;5012810;28;20499;-33
2023/03/02 06:45:28;;;;;;;6.95;5.43;;;;;;;;;;5012816;28;20042;-33
2023/03/02 06:47:55;;;;;;;5.60;4.72;;;;;;;;;;5013273;28;20137;-33
2023/03/02 06:50:22;;;;;;;6.20;5.30;;;;;;;;;;5013204;28;20072;-35
2023/03/02 06:52:49;;;;;;;6.32;5.15;;;;;;;;;;5012566;28;20415;-32
2023/03/02 06:55:16;;;;;;;6.00;5.05;;;;;;;;;;5012677;28;20492;-34
2023/03/02 06:57:43;;;;;;;5.82;4.72;;;;;;;;;;5012993;28;20050;-36
2023/03/02 07:00:16;;;;;;;6.75;5.20;;;18.30;47.80;;;;;;5012698;28;20411;-32
2023/03/02 07:02:44;;;;;;;6.45;5.20;;;;;;;;;;5012313;28;20053;-33
2023/03/02 07:05:12;;;;;;;6.07;5.03;;;;;;;;;;5012786;28;20510;-34
2023/03/02 07:07:39;;;;;;;6.40;5.30;;;;;;;;;;5012693;28;20053;-36
2023/03/02 07:10:06;;;;;;;5.90;4.80;;;;;;;;;;5012665;28;20164;-37
2023/03/02 07:12:33;;;;;;;5.88;4.90;;;;;;;;;;5012207;28;20060;-34
2023/03/02 07:15:00;;;;;;;6.32;5.20;;;;;;;;;;5012484;28;20052;-32
2023/03/02 07:17:27;;;;;;;5.38;4.50;;;;;;;;;;5010947;28;20419;-35
2023/03/02 07:19:55;;;;;;;5.80;4.78;;;18.20;47.80;;;;;;5012274;28;20052;-34
2023/03/02 07:22:22;;;;;;;5.63;4.78;;;;;;;;;;5012097;28;20050;-32
2023/03/02 07:24:49;;;;;;;6.22;4.82;;;;;;;;;;5012150;28;20058;-35
2023/03/02 07:27:16;;;;;;;6.55;4.65;;;;;;;;;;5012614;28;20045;-37
2023/03/02 07:29:43;;;;;;;5.75;4.78;;;;;;;;;;5008045;28;20054;-32
2023/03/02 07:32:11;;;;;;;5.65;4.93;;;;;;;;;;5011293;28;20125;-32
2023/03/02 07:34:38;;;;;;;5.20;4.15;;;;;;;;;;5012636;28;20050;-35
2023/03/02 07:37:07;;;;;;;5.88;4.80;;;;;;;;;;5011751;28;20410;-32
2023/03/02 07:39:34;;;;;;;5.40;4.63;;;;;;;;;;5012447;28;20050;-37
2023/03/02 07:42:03;;;;;;;5.28;4.38;;;;;;;;;;5012112;28;20050;-33
2023/03/02 07:44:30;;;;;;;4.82;4.13;;;;;;;;;;5011860;28;20388;-32
2023/03/02 07:46:57;;;;;;;5.05;4.32;;;;;;;;;;5012112;28;20461;-34
2023/03/02 07:49:24;;;;;;;5.05;4.55;;;;;;;;;;5011995;28;20053;-33
2023/03/02 07:51:51;;;;;;;5.15;4.40;;;;;;;;;;5011884;28;20054;-33
2023/03/02 07:54:19;;;;;;;5.72;4.45;;;;;;;;;;5011870;28;20046;-35
2023/03/02 07:56:47;;;;;;;5.28;4.38;;;;;;;;;;5012233;28;20056;-37
2023/03/02 07:59:14;;;;;;;5.22;4.28;;;;;;;;;;5012128;28;20054;-33
2023/03/02 08:01:41;;;;;;;5.82;4.57;;;;;;;;;;5011913;28;20056;-32
2023/03/02 08:04:08;;;;;;;5.85;4.72;;;;;;;;;;5011463;28;20050;-32
2023/03/02 08:06:35;;;;;;;5.00;4.20;;;;;;;;;;5011760;28;20219;-33
2023/03/02 08:09:02;;;;;;;4.78;4.28;;;;;;;;;;5011789;28;20525;-33
2023/03/02 08:11:30;;;;;;;5.95;4.72;;;19.20;46.20;;;;;;5011712;28;20050;-33
2023/03/02 08:13:59;;;;;;;4.85;3.83;;;19.50;46.10;;;;;;5003686;28;20392;-34
2023/03/02 08:16:26;;;;;;;4.90;4.30;;;;;;;;;;5011820;28;20046;-33
2023/03/02 08:18:53;;;;;;;5.10;4.13;;;;;;;;;;5012121;28;20054;-32
2023/03/02 08:21:21;;;;;;;5.03;4.05;;;;;;;;;;5011904;28;20050;-32
2023/03/02 08:23:48;;;;;;;4.85;4.07;;;;;;;;;;5011617;28;20053;-33
2023/03/02 08:26:15;;;;;;;6.15;4.50;;;;;;;;;;5010384;28;20477;-33
2023/03/02 08:28:44;;;;;;;4.65;4.00;;;19.80;45.60;;;;;;5010023;28;20534;-32
2023/03/02 08:31:11;;;;;;;7.15;4.15;;;;;;;;;;5011169;28;20042;-36
2023/03/02 08:33:38;;;;;;;4.50;3.80;;;;;;;;;;5011230;28;20080;-37
2023/03/02 08:36:06;;;;;;;5.93;4.40;;;19.80;45.20;;;;;;5008806;28;20056;-32
2023/03/02 08:38:33;;;;;;;4.63;3.90;;;;;;;;;;5000877;28;20052;-36
2023/03/02 08:41:03;;;;;;;5.20;4.18;;;;;;;;;;5002860;28;20052;-35
2023/03/02 08:43:30;;;;;;;5.10;4.13;;;;;;;;;;5007791;28;20046;-33
2023/03/02 08:45:58;;;;;;;4.60;3.58;;;20.10;45.30;;;;;;5010203;28;20042;-33
2023/03/02 08:48:25;;;;;;;5.55;3.80;;;;;;;;;;5004080;28;20052;-32
2023/03/02 08:50:55;;;;;;;4.65;3.90;;;;;;;;;;5001855;28;20404;-32
2023/03/02 08:53:22;;;;;;;5.25;3.85;;;;;;;;;;5009671;28;20436;-36
2023/03/02 08:55:49;;;;;;;4.55;3.70;;;;;;;;;;5007398;28;20068;-32
2023/03/02 08:58:16;;;;;;;4.50;3.80;;;20.10;74.70;;;;;;4996867;28;20057;-33
2023/03/02 09:00:43;;;;;;;4.78;3.65;;;;;;;;;;5007950;28;20052;-33
2023/03/02 09:03:12;;;;;;;4.10;3.40;;;;;;;;;;5004790;28;20061;-36
2023/03/02 09:05:39;;;;;;;4.00;3.33;;;;;;;;;;5005831;28;20053;-36
2023/03/02 09:08:06;;;;;;;4.50;3.55;;;20.10;58.10;;;;;;5008867;28;20060;-35
2023/03/02 09:10:33;;;;;;;4.25;3.75;;;;;;;;;;4998220;28;20046;-36
2023/03/02 09:13:00;;;;;;;4.50;3.53;;;;;;;;;;4997014;28;20050;-32
2023/03/02 09:15:27;;;;;;;4.20;3.40;;;;;;;;;;5013675;28;20042;-32
2023/03/02 09:17:54;;;;;;;4.53;3.63;;;;;;;;;;5016789;28;20046;-33
2023/03/02 09:20:23;;;;;;;3.70;3.30;;;;;;;;;;5021219;28;20046;-33
2023/03/02 09:22:50;;;;;;;4.32;3.60;;;;;;;;;;5014484;28;20179;-32
2023/03/02 09:25:18;;;;;;;4.80;3.45;;;;;;;;;;5012210;28;20064;-33
2023/03/02 09:27:45;;;;;;;4.60;3.03;;;;;;;;;;5014212;28;20048;-33
2023/03/02 09:30:12;;;;;;;4.85;3.30;;;;;;;;;;5016226;28;20048;-35
2023/03/02 09:32:39;;;;;;;3.53;3.05;;;21.20;74.30;;;;;;5015060;28;20048;-35
2023/03/02 09:35:07;;;;;;;4.15;3.47;;;;;;;;;;5016113;28;20052;-33
2023/03/02 09:37:37;;;;;;;4.07;3.22;;;;;;;;;;5013062;28;20378;-36
2023/03/02 09:40:04;;;;;;;3.85;3.13;;;;;;;;;;5015267;28;20045;-36
2023/03/02 09:42:49;;;;;;;4.38;3.47;;;20.70;44.10;;;;;;5014717;28;20042;-34
2023/03/02 09:45:19;;;;;;;9.75;3.35;;;;;;;;;;5014685;28;20525;-35
2023/03/02 09:47:48;;;;;;;4.00;3.38;;;;;;;;;;5014508;28;20064;-33
2023/03/02 09:50:21;;;;;;;3.47;2.97;;;;;;;;;;5011282;28;20052;-34
2023/03/02 09:52:51;;;;;;;3.70;3.28;;;;;;;;;;5014505;28;20052;-32
2023/03/02 09:55:19;;;;;;;3.88;3.30;;;;;;;;;;5020723;28;20044;-33
2023/03/02 09:57:46;;;;;;;4.82;3.15;;;;;;;;;;5022789;28;20052;-33
2023/03/02 10:00:14;;;;;;;3.72;3.20;;;20.90;42.00;;;;;;5023228;28;20056;-35
2023/03/02 10:02:44;;;;;;;3.70;2.63;;;;;;;;;;5019942;28;20513;-32
2023/03/02 10:05:15;;;;;;;3.47;3.10;;;21.00;42.10;;;;;;5022728;28;20056;-32
2023/03/02 10:07:42;;;;;;;3.67;2.80;;;;;;;;;;5023676;28;20051;-32
2023/03/02 10:10:17;;;;;;;3.35;2.75;;;20.90;43.40;;;;;;5023159;28;20064;-32
2023/03/02 10:12:51;;;;;;;3.42;2.58;;;;;;;;;;4292017;28;10000994;-32
2023/03/02 10:15:19;;;;;;;3.38;2.85;;;;;;;;;;5012766;28;20512;-32
2023/03/02 10:17:51;;;;;;;3.08;2.55;;;;;;;;;;5024587;28;20052;-34
2023/03/02 10:20:19;;;;;;;3.85;3.00;;;;;;;;;;5023065;28;20057;-34
2023/03/02 10:22:48;;;;;;;3.38;2.67;;;21.00;42.70;;;;;;5028214;28;20513;-32
2023/03/02 10:25:24;;;;;;;3.03;2.55;;;21.10;43.20;;;;;;5026929;28;20060;-35
2023/03/02 10:27:51;;;;;;;3.30;2.83;;;20.10;72.70;;;;;;5021740;28;20041;-32
2023/03/02 10:30:20;;;;;;;3.10;2.80;;;;;;;;;;5025848;28;20426;-32
2023/03/02 10:32:47;;;;;;;3.30;2.70;;;22.30;68.00;;;;;;5026293;28;20049;-33
2023/03/02 10:35:16;;;;;;;3.13;2.55;;;21.10;41.90;;;;;;5021058;28;20053;-33
2023/03/02 10:37:43;;;;;;;2.88;2.58;;;;;;;;;;5022900;28;20576;-32
2023/03/02 10:40:12;;;;;;;3.40;2.75;;;;;;;;;;5024059;28;20049;-33
2023/03/02 10:42:40;;;;;;;3.30;2.67;;;;;;;;;;5022737;28;20046;-33
2023/03/02 10:45:24;;;;;;;3.58;2.80;;;21.20;43.20;;;;;;5026488;28;20056;-33
2023/03/02 10:48:00;;;;;;;2.92;2.50;;;;;;;;;;5022060;28;20053;-33
2023/03/02 10:50:29;;;;;;;2.95;2.35;;;;;;;;;;5017066;28;20076;-34
2023/03/02 10:52:56;;;;;;;4.07;2.42;;;;;;;;;;5021294;28;20073;-32
2023/03/02 10:55:23;;;;;;;2.70;2.30;;;;;;;;;;5023232;28;20059;-32
2023/03/02 10:58:00;;;;;;;3.00;2.40;;;21.30;43.10;;;;;;5021086;28;20056;-32
2023/03/02 11:00:28;;;;;;;2.80;2.40;;;21.30;42.30;;;;;;5026250;28;20080;-34
2023/03/02 11:02:55;;;;;;;2.85;2.35;;;;;;;;;;5021566;28;20046;-35
2023/03/02 11:05:27;;;;;;;2.45;2.25;;;21.20;42.90;;;;;;5024975;28;20045;-32
2023/03/02 11:07:54;;;;;;;3.08;2.40;;;21.00;53.60;;;;;;5023005;28;20052;-32
2023/03/02 11:10:22;;;;;;;3.00;2.30;;;;;;;;;;5024374;28;20099;-32
2023/03/02 11:12:49;;;;;;;2.80;2.25;;;;;;;;;;5023211;28;20042;-35
2023/03/02 11:15:19;;;;;;;3.38;2.42;;;;;;;;;;5013250;28;20052;-34
2023/03/02 11:17:47;;;;;;;4.03;2.53;;;;;;;;;;5021386;28;20113;-33
2023/03/02 11:20:15;;;;;;;2.85;2.33;;;;;;;;;;5011957;28;20418;-35
2023/03/02 11:22:46;;;;;;;2.88;2.22;;;21.10;43.40;;;;;;5012476;28;20430;-35
2023/03/02 11:25:23;;;;;;;2.65;2.10;;;21.00;41.80;;;;;;5016651;28;20045;-34
2023/03/02 11:27:50;;;;;;;2.70;2.22;;;;;;;;;;5013938;28;20052;-34
2023/03/02 11:30:21;;;;;;;3.00;2.13;;;20.90;43.60;;;;;;5014677;28;20053;-34
2023/03/02 11:32:50;;;;;;;2.90;2.28;;;;;;;;;;5016365;28;20136;-33
2023/03/02 11:35:19;;;;;;;2.80;2.10;;;;;;;;;;5016037;28;20042;-33
2023/03/02 11:37:47;;;;;;;3.80;2.20;;;;;;;;;;5015971;28;20052;-32
2023/03/02 11:40:18;;;;;;;2.95;2.55;;;20.60;43.60;;;;;;5017499;28;20366;-35
2023/03/02 11:42:45;;;;;;;2.83;2.13;;;;;;;;;;5016017;28;20049;-33
2023/03/02 11:45:21;;;;;;;2.75;2.25;;;;;;;;;;5017420;28;20045;-32
2023/03/02 11:47:50;;;;;;;2.83;2.30;;;;;;;;;;5016249;28;20054;-32
2023/03/02 11:50:18;;;;;;;3.45;2.22;;;;;;;;;;5015502;28;20392;-33
2023/03/02 11:52:46;;;;;;;2.70;2.10;;;20.50;44.10;;;;;;5015828;28;20054;-33
2023/03/02 11:55:17;;;;;;;2.63;2.30;;;20.50;42.70;;;;;;5017307;28;20049;-37
2023/03/02 11:57:48;;;;;;;2.60;2.30;;;;;;;;;;5021378;28;20045;-36
2023/03/02 12:00:16;;;;;;;3.55;2.22;;;;;;;;;;5019725;28;20060;-35
2023/03/02 12:02:45;;;;;;;2.33;2.03;;;;;;;;;;5021296;28;20053;-37
2023/03/02 12:05:24;;;;;;;2.58;2.17;;;20.20;44.30;;;;;;5020660;28;20049;-35
2023/03/02 12:07:57;;;;;;;2.83;2.40;;;;;;;;;;5020273;28;20052;-32
2023/03/02 12:10:27;;;;;;;2.92;2.33;;;20.20;44.30;;;;;;5017627;28;20088;-32
2023/03/02 12:12:59;;;;;;;2.42;2.10;;;;;;;;;;5020702;28;20041;-34
2023/03/02 12:15:39;;;;;;;3.20;2.60;;;20.10;44.60;;;;;;5012120;28;20049;-32
2023/03/02 12:18:25;;;;;;;2.40;2.20;;;;;;;;;;5019858;28;20049;-34
2023/03/02 12:20:59;;;;;;;2.75;2.40;;;;;;;;;;4137213;28;10000926;-32
2023/03/02 12:23:26;;;;;;;3.42;2.30;;;;;;;;;;5010944;28;20053;-33
2023/03/02 12:26:01;;;;;;;2.67;2.20;;;;;;;;;;5010245;28;20054;-33
2023/03/02 12:28:29;;;;;;;;;;;19.70;45.00;;;;;;5009087;28;20057;-33
2023/03/02 12:30:56;;;;;;;3.20;2.50;;;19.70;44.20;;;;;;5002955;28;19928;-34
2023/03/02 12:33:23;;;;;;;2.83;2.38;;;;;;;;;;5011628;28;20076;-36
2023/03/02 12:35:55;;;;;;;3.30;2.70;;;;;;;;;;5010552;28;20590;-33
2023/03/02 12:38:29;;;;;;;3.33;2.60;;;19.60;45.30;;;;;;5011432;28;20041;-33
2023/03/02 12:41:00;;;;;;;3.00;2.55;;;;;;;;;;5014970;28;20048;-35
2023/03/02 12:43:28;;;;;;;3.25;2.45;;;;;;;;;;5015185;28;20060;-33
2023/03/02 12:46:12;;;;;;;2.85;2.42;;;19.60;45.40;;;;;;5012013;28;20121;-34
2023/03/02 12:48:40;;;;;;;3.42;2.72;;;;;;;;;;5008860;28;20049;-34
2023/03/02 12:51:07;;;;;;;3.33;2.10;;;;;;;;;;5010042;28;20046;-38
2023/03/02 12:53:38;;;;;;;2.72;2.17;;;19.40;45.70;;;;;;5013878;28;20058;-38
2023/03/02 12:56:06;;;;;;;2.60;2.30;;;;;;;;;;5014375;28;20206;-35
2023/03/02 12:58:33;;;;;;;2.83;2.35;;;;;;;;;;5009150;28;20418;-33
2023/03/02 13:01:00;;;;;;;3.38;2.50;;;;;;;;;;5001965;28;20505;-35
2023/03/02 13:03:29;;;;;;;4.07;2.30;;;;;;;;;;5001148;28;20402;-35
2023/03/02 13:06:00;;;;;;;3.25;2.63;;;;;;;;;;5007917;28;20069;-32
2023/03/02 13:08:28;;;;;;;4.80;2.30;;;;;;;;;;4993840;28;20050;-36
2023/03/02 13:10:57;;;;;;;2.78;2.20;;;;;;;;;;4994687;28;20070;-36
2023/03/02 13:13:25;;;;;;;2.95;2.53;;;19.10;43.60;;;;;;4994833;28;20054;-35
2023/03/02 13:15:53;;;;;;;2.63;2.22;;;;;;;;;;5003882;28;20046;-34
2023/03/02 13:18:20;;;;;;;2.80;2.40;;;;;;;;;;5014346;28;20137;-35
2023/03/02 13:20:47;;;;;;;3.90;2.28;;;;;;;;;;5014614;28;20050;-34
2023/03/02 13:23:14;;;;;;;2.83;2.30;;;;;;;;;;5014165;28;20054;-36
2023/03/02 13:25:47;;;;;;;2.60;2.13;;;;;;;;;;5014592;28;20123;-35
2023/03/02 13:28:29;;;;;;;2.95;2.28;;;19.00;45.70;;;;;;5014156;28;20129;-34
2023/03/02 13:30:56;;;;;;;2.67;2.38;;;19.10;45.20;;;;;;5014170;28;20128;-33
2023/03/02 13:33:24;;;;;;;3.30;2.40;;;;;;;;;;5014079;28;20054;-33
2023/03/02 13:35:50;;;;;;;2.55;2.13;;;18.90;75.50;;;;;;5014053;28;20057;-36
2023/03/02 13:38:18;;;;;;;2.75;2.33;;;;;;;;;;5014031;28;20045;-35
2023/03/02 13:40:47;;;;;;;2.70;2.03;;;;;;;;;;5014391;28;20050;-36
2023/03/02 13:43:20;;;;;;;3.17;2.30;;;;;;;;;;5013963;28;20064;-38
2023/03/02 13:45:53;;;;;;;3.47;2.35;;;19.20;45.90;;;;;;5013604;28;20056;-34
2023/03/02 13:48:20;;;;;;;3.17;2.40;;;;;;;;;;5013381;28;20050;-36
2023/03/02 13:50:51;;;;;;;4.60;2.15;;;19.20;45.70;;;;;;5014128;28;20053;-33
2023/03/02 13:53:18;;;;;;;2.60;2.10;;;;;;;;;;5013852;28;20049;-35
2023/03/02 13:55:45;;;;;;;3.03;2.30;;;;;;;;;;5013470;28;20076;-34
2023/03/02 13:58:14;;;;;;;2.83;2.25;;;19.30;45.60;;;;;;5013649;28;20415;-32
2023/03/02 14:00:41;;;;;;;2.47;1.95;;;;;;;;;;5013996;28;20050;-34
2023/03/02 14:03:12;;;;;;;2.85;2.30;;;;;;;;;;5013487;28;20071;-37
2023/03/02 14:05:39;;;;;;;2.60;2.10;;;;;;;;;;5013841;28;20050;-39
2023/03/02 14:08:07;;;;;;;2.30;1.90;;;;;;;;;;5013714;28;20048;-34
2023/03/02 14:10:34;;;;;;;2.75;2.05;;;;;;;;;;5013522;28;20060;-33
2023/03/02 14:13:03;;;;;;;3.85;2.20;;;;;;;;;;5013114;28;20056;-34
2023/03/02 14:15:30;;;;;;;2.75;2.25;;;;;;;;;;5013533;28;20100;-32